• Join FlightAware (Why Join?)
  • Login
  • US Flag 
04:10AM EDT


 

Airport Tracker/Info


-or-


 

Live Flight TrackerFlight Track Log ✈ EJA729 ✈ 28-Jun-2013 ✈ KPIT - KAVP

Flight Track Log - Related Links

Times and Time Zones

All times are in EDT time to prevent confusion due to time zone crossing. See the EJA729 flight status page for this flight to view local times or setup timezone preferences in your user account.

Time Position Orientation Groundspeed Altitude Reporting Facility
EDT Latitude Longitude Course Direction KTS MPH feet Rate Location/Type
09:35PM 40.5756 -80.2853 81° East 237 273 5,400  Level Cleveland Center
09:36PM 40.6106 -80.2056 60° Northeast 226 260 8,700 3,600 Climbing Cleveland Center
09:37PM 40.6228 -80.0906 82° East 251 289 12,700 4,020 Climbing Cleveland Center
09:38PM 40.6325 -79.9567 84° East 315 362 16,800 3,960 Climbing Cleveland Center
09:39PM 40.6422 -79.8250 84° East 338 389 20,700 3,000 Climbing Cleveland Center
09:40PM 40.6492 -79.4675 79° East  Level Estimated
09:40PM 40.6514 -79.6744 85° East 376 433 22,800  Level Cleveland Center
09:41PM 40.6750 -79.3396 81° East  Level Estimated
09:41PM 40.6625 -79.5047 85° East 428 493 23,000  Level Cleveland Center
09:42PM 40.6750 -79.3156 85° East 481 554 23,000  Level Cleveland Center
09:43PM 40.6878 -79.1456 84° East 507 583 23,000  Level Cleveland Center
09:44PM 40.6994 -78.9317 86° East 527 606 23,000  Level Cleveland Center
09:45PM 40.7089 -78.7369 86° East 532 612 23,000 -180 Level Cleveland Center
09:48PM 40.7378 -78.3144 85° East 552 635 22,600 -480 Descending New York Center
09:49PM 40.7700 -78.1317 77° East 534 615 21,500 -1,140 Descending New York Center
09:50PM 40.8050 -77.9353 77° East 512 589 20,400 -1,140 Descending New York Center
09:51PM 40.8342 -77.7600 78° East 498 573 19,300 -720 Descending New York Center
09:52PM 40.8603 -77.5978 78° East 477 549 19,000 -480 Descending New York Center
09:53PM 40.8844 -77.4300 79° East 463 533 18,400 -1,200 Descending New York Center
09:54PM 40.9047 -77.2919 79° East 456 525 16,600 -1,680 Descending New York Center
09:55PM 40.9275 -77.1403 79° East 431 496 15,100 -1,560 Descending New York Center
09:56PM 40.9478 -76.9964 79° East 417 480 13,600 -1,560 Descending New York Center
09:57PM 40.9697 -76.8528 79° East 406 467 12,100 -1,500 Descending New York Center
09:58PM 40.9889 -76.7197 79° East 384 442 10,600 -1,560 Descending New York Center
09:59PM 41.0053 -76.6031 79° East 339 390 9,000 -840 Descending New York Center
10:00PM 41.0208 -76.4942 79° East 306 352 9,000  Level New York Center
10:01PM 41.0394 -76.3692 79° East 306 352 9,000  Level New York Center
10:02PM 41.0550 -76.2578 79° East 311 358 9,000 -840 Level New York Center
10:03PM 41.0706 -76.1489 79° East 311 358 7,400 -1,860 Descending New York Center
10:04PM 41.0853 -76.0536 78° East 306 352 5,400 -1,680 Descending New York Center
10:05PM 41.1078 -75.9647 71° East 272 313 4,100 -720 Descending New York Center
10:06PM 41.1506 -75.8933 51° Northeast 225 259 4,000 -60 Descending New York Center
10:07PM 41.1983 -75.8503 34° Northeast 207 238 4,000 -420 Level New York Center
10:08PM 41.2372 -75.8144 35° Northeast 183 211 3,200 -900 Descending New York Center
10:09PM 41.2719 -75.7811 36° Northeast 160 184 2,300 -840 Descending New York Center
10:10PM 41.3086 -75.7508 32° Northeast 154 177 1,500 -600 Descending New York Center
10:11PM 41.3392 -75.7228 35° Northeast 154 177 1,200 3,780 Descending New York Center
10:12PM 41.3717 -75.6892 38° Northeast 154 177 9,000 7,620 Climbing New York Center